sensor_id;sensor_type;location;lat;lon;timestamp;temperature;humidity
9006;DHT22;62284;50.702;7.140;2022-08-01T00:02:18;23.90;84.90
9006;DHT22;62284;50.702;7.140;2022-08-01T00:04:45;24.00;84.50
9006;DHT22;62284;50.702;7.140;2022-08-01T00:07:12;23.90;85.00
9006;DHT22;62284;50.702;7.140;2022-08-01T00:09:39;23.80;85.50
9006;DHT22;62284;50.702;7.140;2022-08-01T00:12:06;23.80;85.60
9006;DHT22;62284;50.702;7.140;2022-08-01T00:14:33;23.70;85.70
9006;DHT22;62284;50.702;7.140;2022-08-01T00:16:59;23.60;86.10
9006;DHT22;62284;50.702;7.140;2022-08-01T00:19:28;23.70;86.30
9006;DHT22;62284;50.702;7.140;2022-08-01T00:21:55;23.80;86.20
9006;DHT22;62284;50.702;7.140;2022-08-01T00:24:21;23.70;86.10
9006;DHT22;62284;50.702;7.140;2022-08-01T00:26:48;23.70;86.40
9006;DHT22;62284;50.702;7.140;2022-08-01T00:29:15;23.70;86.40
9006;DHT22;62284;50.702;7.140;2022-08-01T00:31:42;23.70;86.50
9006;DHT22;62284;50.702;7.140;2022-08-01T00:34:09;23.70;86.70
9006;DHT22;62284;50.702;7.140;2022-08-01T00:36:37;23.70;86.80
9006;DHT22;62284;50.702;7.140;2022-08-01T00:39:04;23.70;86.80
9006;DHT22;62284;50.702;7.140;2022-08-01T00:41:31;23.70;86.90
9006;DHT22;62284;50.702;7.140;2022-08-01T00:43:58;23.70;87.00
9006;DHT22;62284;50.702;7.140;2022-08-01T00:46:25;23.60;87.30
9006;DHT22;62284;50.702;7.140;2022-08-01T00:48:51;23.60;87.60
9006;DHT22;62284;50.702;7.140;2022-08-01T00:51:18;23.60;87.90
9006;DHT22;62284;50.702;7.140;2022-08-01T00:53:47;23.20;89.80
9006;DHT22;62284;50.702;7.140;2022-08-01T00:56:14;23.40;89.70
9006;DHT22;62284;50.702;7.140;2022-08-01T00:58:41;23.50;89.20
9006;DHT22;62284;50.702;7.140;2022-08-01T01:01:08;23.50;89.40
9006;DHT22;62284;50.702;7.140;2022-08-01T01:03:35;23.40;89.80
9006;DHT22;62284;50.702;7.140;2022-08-01T01:06:10;23.40;90.30
9006;DHT22;62284;50.702;7.140;2022-08-01T01:08:43;23.40;90.20
9006;DHT22;62284;50.702;7.140;2022-08-01T01:11:21;23.20;90.70
9006;DHT22;62284;50.702;7.140;2022-08-01T01:13:55;23.30;91.00
9006;DHT22;62284;50.702;7.140;2022-08-01T01:16:24;23.30;90.70
9006;DHT22;62284;50.702;7.140;2022-08-01T01:18:55;23.40;90.60
9006;DHT22;62284;50.702;7.140;2022-08-01T01:21:52;23.40;90.70
9006;DHT22;62284;50.702;7.140;2022-08-01T01:24:31;23.40;90.60
9006;DHT22;62284;50.702;7.140;2022-08-01T01:27:10;23.30;90.90
9006;DHT22;62284;50.702;7.140;2022-08-01T01:29:44;23.40;91.00
9006;DHT22;62284;50.702;7.140;2022-08-01T01:32:17;23.40;91.00
9006;DHT22;62284;50.702;7.140;2022-08-01T01:34:48;23.30;91.20
9006;DHT22;62284;50.702;7.140;2022-08-01T01:37:18;23.20;91.50
9006;DHT22;62284;50.702;7.140;2022-08-01T01:39:46;23.20;91.40
9006;DHT22;62284;50.702;7.140;2022-08-01T01:42:16;23.20;91.60
9006;DHT22;62284;50.702;7.140;2022-08-01T01:44:46;23.00;92.00
9006;DHT22;62284;50.702;7.140;2022-08-01T01:47:14;22.90;92.60
9006;DHT22;62284;50.702;7.140;2022-08-01T01:49:45;23.00;92.60
9006;DHT22;62284;50.702;7.140;2022-08-01T01:52:15;23.00;92.60
9006;DHT22;62284;50.702;7.140;2022-08-01T01:54:45;22.80;93.00
9006;DHT22;62284;50.702;7.140;2022-08-01T01:57:15;22.90;93.10
9006;DHT22;62284;50.702;7.140;2022-08-01T01:59:45;22.90;93.30
9006;DHT22;62284;50.702;7.140;2022-08-01T02:02:14;22.80;93.70
9006;DHT22;62284;50.702;7.140;2022-08-01T02:04:43;22.80;93.70
9006;DHT22;62284;50.702;7.140;2022-08-01T02:07:14;22.80;93.80
9006;DHT22;62284;50.702;7.140;2022-08-01T02:09:43;22.90;93.70
9006;DHT22;62284;50.702;7.140;2022-08-01T02:12:11;22.90;93.80
9006;DHT22;62284;50.702;7.140;2022-08-01T02:14:39;22.90;93.90
9006;DHT22;62284;50.702;7.140;2022-08-01T02:17:09;22.80;94.10
9006;DHT22;62284;50.702;7.140;2022-08-01T02:19:37;22.80;94.30
9006;DHT22;62284;50.702;7.140;2022-08-01T02:22:07;22.80;94.20
9006;DHT22;62284;50.702;7.140;2022-08-01T02:24:37;22.90;94.10
9006;DHT22;62284;50.702;7.140;2022-08-01T02:27:09;22.80;94.30
9006;DHT22;62284;50.702;7.140;2022-08-01T02:29:39;22.90;94.20
9006;DHT22;62284;50.702;7.140;2022-08-01T02:32:12;22.70;94.50
9006;DHT22;62284;50.702;7.140;2022-08-01T02:34:42;22.80;94.60
9006;DHT22;62284;50.702;7.140;2022-08-01T02:37:13;22.80;94.50
9006;DHT22;62284;50.702;7.140;2022-08-01T02:39:41;22.80;94.60
9006;DHT22;62284;50.702;7.140;2022-08-01T02:42:11;22.90;94.40
9006;DHT22;62284;50.702;7.140;2022-08-01T02:44:42;22.80;94.50
9006;DHT22;62284;50.702;7.140;2022-08-01T02:47:12;22.70;95.20
9006;DHT22;62284;50.702;7.140;2022-08-01T02:49:43;22.70;95.10
9006;DHT22;62284;50.702;7.140;2022-08-01T02:52:13;22.70;95.10
9006;DHT22;62284;50.702;7.140;2022-08-01T02:54:42;22.70;95.00
9006;DHT22;62284;50.702;7.140;2022-08-01T02:57:10;22.70;95.00
9006;DHT22;62284;50.702;7.140;2022-08-01T02:59:39;22.70;95.10
9006;DHT22;62284;50.702;7.140;2022-08-01T03:02:07;22.70;95.20
9006;DHT22;62284;50.702;7.140;2022-08-01T03:04:38;22.60;95.50
9006;DHT22;62284;50.702;7.140;2022-08-01T03:07:08;22.60;95.40
9006;DHT22;62284;50.702;7.140;2022-08-01T03:09:38;22.60;96.10
9006;DHT22;62284;50.702;7.140;2022-08-01T03:12:07;22.60;95.80
9006;DHT22;62284;50.702;7.140;2022-08-01T03:14:37;22.60;95.60
9006;DHT22;62284;50.702;7.140;2022-08-01T03:17:07;22.50;95.80
9006;DHT22;62284;50.702;7.140;2022-08-01T03:19:38;22.50;96.00
9006;DHT22;62284;50.702;7.140;2022-08-01T03:22:07;22.50;95.90
9006;DHT22;62284;50.702;7.140;2022-08-01T03:24:36;22.50;96.00
9006;DHT22;62284;50.702;7.140;2022-08-01T03:27:06;22.60;96.00
9006;DHT22;62284;50.702;7.140;2022-08-01T03:29:34;22.50;96.20
9006;DHT22;62284;50.702;7.140;2022-08-01T03:32:03;22.40;96.30
9006;DHT22;62284;50.702;7.140;2022-08-01T03:34:31;22.40;96.40
9006;DHT22;62284;50.702;7.140;2022-08-01T03:37:03;22.30;96.50
9006;DHT22;62284;50.702;7.140;2022-08-01T03:39:36;22.30;96.60
9006;DHT22;62284;50.702;7.140;2022-08-01T03:42:08;22.40;96.50
9006;DHT22;62284;50.702;7.140;2022-08-01T03:44:37;22.50;96.40
9006;DHT22;62284;50.702;7.140;2022-08-01T03:47:08;22.50;96.40
9006;DHT22;62284;50.702;7.140;2022-08-01T03:49:37;22.50;96.40
9006;DHT22;62284;50.702;7.140;2022-08-01T03:52:07;22.50;96.40
9006;DHT22;62284;50.702;7.140;2022-08-01T03:54:37;22.50;96.80
9006;DHT22;62284;50.702;7.140;2022-08-01T03:57:07;22.40;96.50
9006;DHT22;62284;50.702;7.140;2022-08-01T03:59:35;22.40;96.70
9006;DHT22;62284;50.702;7.140;2022-08-01T04:02:04;22.40;96.60
9006;DHT22;62284;50.702;7.140;2022-08-01T04:04:32;22.50;96.50
9006;DHT22;62284;50.702;7.140;2022-08-01T04:07:00;22.50;96.60
9006;DHT22;62284;50.702;7.140;2022-08-01T04:09:31;22.30;96.90
9006;DHT22;62284;50.702;7.140;2022-08-01T04:11:58;22.30;96.90
9006;DHT22;62284;50.702;7.140;2022-08-01T04:14:26;22.30;97.00
9006;DHT22;62284;50.702;7.140;2022-08-01T04:16:53;22.20;97.10
9006;DHT22;62284;50.702;7.140;2022-08-01T04:19:20;22.30;97.00
9006;DHT22;62284;50.702;7.140;2022-08-01T04:21:47;22.30;97.00
9006;DHT22;62284;50.702;7.140;2022-08-01T04:24:17;22.30;97.20
9006;DHT22;62284;50.702;7.140;2022-08-01T04:26:47;22.30;97.30
9006;DHT22;62284;50.702;7.140;2022-08-01T04:29:17;22.30;97.20
9006;DHT22;62284;50.702;7.140;2022-08-01T04:31:48;22.30;97.60
9006;DHT22;62284;50.702;7.140;2022-08-01T04:34:21;22.30;97.30
9006;DHT22;62284;50.702;7.140;2022-08-01T04:36:51;22.20;97.60
9006;DHT22;62284;50.702;7.140;2022-08-01T04:39:19;22.20;97.40
9006;DHT22;62284;50.702;7.140;2022-08-01T04:41:49;22.30;97.40
9006;DHT22;62284;50.702;7.140;2022-08-01T04:44:16;22.30;97.30
9006;DHT22;62284;50.702;7.140;2022-08-01T04:46:43;22.30;97.30
9006;DHT22;62284;50.702;7.140;2022-08-01T04:49:13;22.30;97.30
9006;DHT22;62284;50.702;7.140;2022-08-01T04:51:50;22.40;97.30
9006;DHT22;62284;50.702;7.140;2022-08-01T04:54:18;22.40;97.30
9006;DHT22;62284;50.702;7.140;2022-08-01T04:56:48;22.30;97.40
9006;DHT22;62284;50.702;7.140;2022-08-01T04:59:15;22.30;97.50
9006;DHT22;62284;50.702;7.140;2022-08-01T05:01:59;22.20;97.60
9006;DHT22;62284;50.702;7.140;2022-08-01T05:04:26;22.20;97.80
9006;DHT22;62284;50.702;7.140;2022-08-01T05:06:53;22.20;97.80
9006;DHT22;62284;50.702;7.140;2022-08-01T05:09:19;22.30;97.70
9006;DHT22;62284;50.702;7.140;2022-08-01T05:11:48;22.40;97.50
9006;DHT22;62284;50.702;7.140;2022-08-01T05:14:14;22.50;97.50
9006;DHT22;62284;50.702;7.140;2022-08-01T05:16:41;22.50;97.40
9006;DHT22;62284;50.702;7.140;2022-08-01T05:19:08;22.50;97.40
9006;DHT22;62284;50.702;7.140;2022-08-01T05:21:36;22.40;97.30
9006;DHT22;62284;50.702;7.140;2022-08-01T05:24:03;22.40;97.50
9006;DHT22;62284;50.702;7.140;2022-08-01T05:26:30;22.30;97.70
9006;DHT22;62284;50.702;7.140;2022-08-01T05:28:59;22.50;97.50
9006;DHT22;62284;50.702;7.140;2022-08-01T05:31:26;22.50;97.50
9006;DHT22;62284;50.702;7.140;2022-08-01T05:33:54;22.50;97.50
9006;DHT22;62284;50.702;7.140;2022-08-01T05:36:21;22.60;97.40
9006;DHT22;62284;50.702;7.140;2022-08-01T05:38:47;22.60;97.40
9006;DHT22;62284;50.702;7.140;2022-08-01T05:41:14;22.50;97.90
9006;DHT22;62284;50.702;7.140;2022-08-01T05:43:41;22.60;97.50
9006;DHT22;62284;50.702;7.140;2022-08-01T05:46:09;22.70;97.50
9006;DHT22;62284;50.702;7.140;2022-08-01T05:48:36;22.70;97.20
9006;DHT22;62284;50.702;7.140;2022-08-01T05:51:03;22.60;97.40
9006;DHT22;62284;50.702;7.140;2022-08-01T05:53:30;22.60;97.90
9006;DHT22;62284;50.702;7.140;2022-08-01T05:55:59;22.60;97.70
9006;DHT22;62284;50.702;7.140;2022-08-01T05:58:26;22.60;97.60
9006;DHT22;62284;50.702;7.140;2022-08-01T06:00:53;22.50;97.80
9006;DHT22;62284;50.702;7.140;2022-08-01T06:03:22;22.60;97.60
9006;DHT22;62284;50.702;7.140;2022-08-01T06:05:48;22.70;97.40
9006;DHT22;62284;50.702;7.140;2022-08-01T06:08:15;22.70;97.50
9006;DHT22;62284;50.702;7.140;2022-08-01T06:10:42;22.80;97.50
9006;DHT22;62284;50.702;7.140;2022-08-01T06:13:09;22.90;97.40
9006;DHT22;62284;50.702;7.140;2022-08-01T06:15:36;23.00;96.90
9006;DHT22;62284;50.702;7.140;2022-08-01T06:18:03;23.10;96.90
9006;DHT22;62284;50.702;7.140;2022-08-01T06:20:31;23.00;96.70
9006;DHT22;62284;50.702;7.140;2022-08-01T06:22:58;22.90;97.10
9006;DHT22;62284;50.702;7.140;2022-08-01T06:25:25;22.90;97.10
9006;DHT22;62284;50.702;7.140;2022-08-01T06:27:52;23.00;97.10
9006;DHT22;62284;50.702;7.140;2022-08-01T06:30:19;23.00;97.10
9006;DHT22;62284;50.702;7.140;2022-08-01T06:32:46;22.90;97.00
9006;DHT22;62284;50.702;7.140;2022-08-01T06:35:14;23.70;95.50
9006;DHT22;62284;50.702;7.140;2022-08-01T06:37:42;23.30;96.40
9006;DHT22;62284;50.702;7.140;2022-08-01T06:40:11;23.10;96.80
9006;DHT22;62284;50.702;7.140;2022-08-01T06:42:38;23.20;96.90
9006;DHT22;62284;50.702;7.140;2022-08-01T06:45:06;23.20;96.70
9006;DHT22;62284;50.702;7.140;2022-08-01T06:47:33;23.20;96.60
9006;DHT22;62284;50.702;7.140;2022-08-01T06:50:01;23.40;96.50
9006;DHT22;62284;50.702;7.140;2022-08-01T06:52:27;23.40;96.10
9006;DHT22;62284;50.702;7.140;2022-08-01T06:54:56;23.40;96.30
9006;DHT22;62284;50.702;7.140;2022-08-01T06:57:23;23.50;96.10
9006;DHT22;62284;50.702;7.140;2022-08-01T06:59:50;23.60;95.90
9006;DHT22;62284;50.702;7.140;2022-08-01T07:02:17;23.70;95.70
9006;DHT22;62284;50.702;7.140;2022-08-01T07:04:44;23.70;95.40
9006;DHT22;62284;50.702;7.140;2022-08-01T07:07:10;23.60;95.50
9006;DHT22;62284;50.702;7.140;2022-08-01T07:09:37;23.70;95.70
9006;DHT22;62284;50.702;7.140;2022-08-01T07:12:08;23.70;95.80
9006;DHT22;62284;50.702;7.140;2022-08-01T07:14:35;23.70;95.60
9006;DHT22;62284;50.702;7.140;2022-08-01T07:17:02;23.70;96.20
9006;DHT22;62284;50.702;7.140;2022-08-01T07:19:29;23.80;95.30
9006;DHT22;62284;50.702;7.140;2022-08-01T07:21:56;23.90;95.40
9006;DHT22;62284;50.702;7.140;2022-08-01T07:24:23;24.10;95.20
9006;DHT22;62284;50.702;7.140;2022-08-01T07:26:50;24.20;94.90
9006;DHT22;62284;50.702;7.140;2022-08-01T07:29:18;24.40;94.60
9006;DHT22;62284;50.702;7.140;2022-08-01T07:31:45;24.60;94.20
9006;DHT22;62284;50.702;7.140;2022-08-01T07:34:12;24.30;94.00
9006;DHT22;62284;50.702;7.140;2022-08-01T07:36:38;23.90;94.70
9006;DHT22;62284;50.702;7.140;2022-08-01T07:39:05;23.90;95.00
9006;DHT22;62284;50.702;7.140;2022-08-01T07:41:32;23.50;95.70
9006;DHT22;62284;50.702;7.140;2022-08-01T07:43:59;23.70;95.50
9006;DHT22;62284;50.702;7.140;2022-08-01T07:46:27;23.80;95.30
9006;DHT22;62284;50.702;7.140;2022-08-01T07:48:56;24.00;94.80
9006;DHT22;62284;50.702;7.140;2022-08-01T07:51:23;24.00;94.70
9006;DHT22;62284;50.702;7.140;2022-08-01T07:53:49;24.10;94.20
9006;DHT22;62284;50.702;7.140;2022-08-01T07:56:16;24.50;93.60
9006;DHT22;62284;50.702;7.140;2022-08-01T07:58:43;24.70;92.90
9006;DHT22;62284;50.702;7.140;2022-08-01T08:01:12;24.80;92.70
9006;DHT22;62284;50.702;7.140;2022-08-01T08:03:40;24.90;92.10
9006;DHT22;62284;50.702;7.140;2022-08-01T08:06:07;24.70;92.10
9006;DHT22;62284;50.702;7.140;2022-08-01T08:08:34;24.80;92.10
9006;DHT22;62284;50.702;7.140;2022-08-01T08:11:01;25.00;92.00
9006;DHT22;62284;50.702;7.140;2022-08-01T08:13:28;24.90;91.90
9006;DHT22;62284;50.702;7.140;2022-08-01T08:15:55;24.90;91.90
9006;DHT22;62284;50.702;7.140;2022-08-01T08:18:24;24.90;91.80
9006;DHT22;62284;50.702;7.140;2022-08-01T08:20:52;25.00;91.20
9006;DHT22;62284;50.702;7.140;2022-08-01T08:23:19;24.80;91.70
9006;DHT22;62284;50.702;7.140;2022-08-01T08:26:03;24.80;91.50
9006;DHT22;62284;50.702;7.140;2022-08-01T08:28:30;24.90;91.50
9006;DHT22;62284;50.702;7.140;2022-08-01T08:30:56;24.90;91.00
9006;DHT22;62284;50.702;7.140;2022-08-01T08:33:23;24.80;91.20
9006;DHT22;62284;50.702;7.140;2022-08-01T08:35:51;24.90;91.40
9006;DHT22;62284;50.702;7.140;2022-08-01T08:38:19;24.90;90.80
9006;DHT22;62284;50.702;7.140;2022-08-01T08:40:47;25.10;90.30
9006;DHT22;62284;50.702;7.140;2022-08-01T08:43:16;25.20;89.80
9006;DHT22;62284;50.702;7.140;2022-08-01T08:45:43;25.40;89.20
9006;DHT22;62284;50.702;7.140;2022-08-01T08:48:12;25.40;88.00
9006;DHT22;62284;50.702;7.140;2022-08-01T08:50:40;25.30;87.30
9006;DHT22;62284;50.702;7.140;2022-08-01T08:53:09;25.40;87.70
9006;DHT22;62284;50.702;7.140;2022-08-01T08:55:36;25.70;86.50
9006;DHT22;62284;50.702;7.140;2022-08-01T08:58:04;25.80;85.90
9006;DHT22;62284;50.702;7.140;2022-08-01T09:00:31;25.60;85.50
9006;DHT22;62284;50.702;7.140;2022-08-01T09:02:59;25.30;86.40
9006;DHT22;62284;50.702;7.140;2022-08-01T09:05:26;25.20;87.80
9006;DHT22;62284;50.702;7.140;2022-08-01T09:07:53;25.30;87.50
9006;DHT22;62284;50.702;7.140;2022-08-01T09:10:21;25.10;86.90
9006;DHT22;62284;50.702;7.140;2022-08-01T09:13:08;25.00;86.60
9006;DHT22;62284;50.702;7.140;2022-08-01T09:15:41;25.20;86.80
9006;DHT22;62284;50.702;7.140;2022-08-01T09:18:08;25.30;87.90
9006;DHT22;62284;50.702;7.140;2022-08-01T09:20:35;25.50;86.90
9006;DHT22;62284;50.702;7.140;2022-08-01T09:23:02;25.80;85.20
9006;DHT22;62284;50.702;7.140;2022-08-01T09:25:50;26.10;84.40
9006;DHT22;62284;50.702;7.140;2022-08-01T09:28:17;26.40;82.10
9006;DHT22;62284;50.702;7.140;2022-08-01T09:30:53;26.40;83.00
9006;DHT22;62284;50.702;7.140;2022-08-01T09:33:22;26.60;80.40
9006;DHT22;62284;50.702;7.140;2022-08-01T09:35:54;26.00;82.40
9006;DHT22;62284;50.702;7.140;2022-08-01T09:38:23;26.00;82.60
9006;DHT22;62284;50.702;7.140;2022-08-01T09:40:55;25.90;83.70
9006;DHT22;62284;50.702;7.140;2022-08-01T09:43:23;25.70;83.70
9006;DHT22;62284;50.702;7.140;2022-08-01T09:45:51;25.70;83.90
9006;DHT22;62284;50.702;7.140;2022-08-01T09:48:19;26.10;84.00
9006;DHT22;62284;50.702;7.140;2022-08-01T09:50:48;26.60;81.10
9006;DHT22;62284;50.702;7.140;2022-08-01T09:53:18;26.80;79.80
9006;DHT22;62284;50.702;7.140;2022-08-01T09:55:45;27.20;78.50
9006;DHT22;62284;50.702;7.140;2022-08-01T09:58:14;27.60;76.00
9006;DHT22;62284;50.702;7.140;2022-08-01T10:00:40;27.60;73.70
9006;DHT22;62284;50.702;7.140;2022-08-01T10:03:19;27.70;73.50
9006;DHT22;62284;50.702;7.140;2022-08-01T10:05:46;28.10;72.10
9006;DHT22;62284;50.702;7.140;2022-08-01T10:08:14;28.00;71.40
9006;DHT22;62284;50.702;7.140;2022-08-01T10:10:41;28.00;71.00
9006;DHT22;62284;50.702;7.140;2022-08-01T10:13:08;27.70;68.40
9006;DHT22;62284;50.702;7.140;2022-08-01T10:15:37;27.20;70.40
9006;DHT22;62284;50.702;7.140;2022-08-01T10:18:07;27.40;69.80
9006;DHT22;62284;50.702;7.140;2022-08-01T10:20:35;28.20;70.50
9006;DHT22;62284;50.702;7.140;2022-08-01T10:23:04;29.20;65.00
9006;DHT22;62284;50.702;7.140;2022-08-01T10:25:35;29.60;61.80
9006;DHT22;62284;50.702;7.140;2022-08-01T10:28:06;30.20;60.40
9006;DHT22;62284;50.702;7.140;2022-08-01T10:30:38;30.20;58.50
9006;DHT22;62284;50.702;7.140;2022-08-01T10:33:08;29.50;58.50
9006;DHT22;62284;50.702;7.140;2022-08-01T10:35:35;28.60;62.10
9006;DHT22;62284;50.702;7.140;2022-08-01T10:38:03;28.40;63.60
9006;DHT22;62284;50.702;7.140;2022-08-01T10:40:30;28.80;62.20
9006;DHT22;62284;50.702;7.140;2022-08-01T10:42:57;29.30;61.30
9006;DHT22;62284;50.702;7.140;2022-08-01T10:45:24;29.10;61.60
9006;DHT22;62284;50.702;7.140;2022-08-01T10:47:59;28.60;61.10
9006;DHT22;62284;50.702;7.140;2022-08-01T10:50:32;28.50;61.40
9006;DHT22;62284;50.702;7.140;2022-08-01T10:53:08;28.30;62.80
9006;DHT22;62284;50.702;7.140;2022-08-01T10:55:52;28.20;63.20
9006;DHT22;62284;50.702;7.140;2022-08-01T10:58:23;28.10;64.00
9006;DHT22;62284;50.702;7.140;2022-08-01T11:01:21;27.50;66.20
9006;DHT22;62284;50.702;7.140;2022-08-01T11:04:08;27.10;68.20
9006;DHT22;62284;50.702;7.140;2022-08-01T11:06:41;26.90;70.40
9006;DHT22;62284;50.702;7.140;2022-08-01T11:09:29;26.80;70.90
9006;DHT22;62284;50.702;7.140;2022-08-01T11:11:58;26.80;71.00
9006;DHT22;62284;50.702;7.140;2022-08-01T11:14:27;26.70;71.50
9006;DHT22;62284;50.702;7.140;2022-08-01T11:16:55;27.00;71.80
9006;DHT22;62284;50.702;7.140;2022-08-01T11:19:23;27.70;69.20
9006;DHT22;62284;50.702;7.140;2022-08-01T11:21:59;29.00;66.30
9006;DHT22;62284;50.702;7.140;2022-08-01T11:24:54;30.70;59.20
9006;DHT22;62284;50.702;7.140;2022-08-01T11:27:26;32.20;54.40
9006;DHT22;62284;50.702;7.140;2022-08-01T11:30:21;33.10;53.10
9006;DHT22;62284;50.702;7.140;2022-08-01T11:32:49;34.50;48.40
9006;DHT22;62284;50.702;7.140;2022-08-01T11:35:18;34.60;47.40
9006;DHT22;62284;50.702;7.140;2022-08-01T11:37:46;35.70;46.50
9006;DHT22;62284;50.702;7.140;2022-08-01T11:40:18;36.80;43.30
9006;DHT22;62284;50.702;7.140;2022-08-01T11:42:46;35.90;42.10
9006;DHT22;62284;50.702;7.140;2022-08-01T11:45:13;33.80;44.90
9006;DHT22;62284;50.702;7.140;2022-08-01T11:47:43;32.30;47.60
9006;DHT22;62284;50.702;7.140;2022-08-01T11:50:30;31.20;49.40
9006;DHT22;62284;50.702;7.140;2022-08-01T11:52:58;30.10;52.30
9006;DHT22;62284;50.702;7.140;2022-08-01T11:55:27;29.80;53.80
9006;DHT22;62284;50.702;7.140;2022-08-01T11:57:59;29.50;53.70
9006;DHT22;62284;50.702;7.140;2022-08-01T12:00:26;29.30;53.60
9006;DHT22;62284;50.702;7.140;2022-08-01T12:02:58;28.70;54.20
9006;DHT22;62284;50.702;7.140;2022-08-01T12:05:26;28.90;54.60
9006;DHT22;62284;50.702;7.140;2022-08-01T12:07:55;29.00;54.00
9006;DHT22;62284;50.702;7.140;2022-08-01T12:10:23;29.10;53.90
9006;DHT22;62284;50.702;7.140;2022-08-01T12:12:52;28.60;55.50
9006;DHT22;62284;50.702;7.140;2022-08-01T12:15:21;28.30;56.90
9006;DHT22;62284;50.702;7.140;2022-08-01T12:17:50;27.80;59.60
9006;DHT22;62284;50.702;7.140;2022-08-01T12:20:20;27.40;60.80
9006;DHT22;62284;50.702;7.140;2022-08-01T12:22:54;27.50;60.60
9006;DHT22;62284;50.702;7.140;2022-08-01T12:25:22;27.60;60.40
9006;DHT22;62284;50.702;7.140;2022-08-01T12:27:49;27.90;59.70
9006;DHT22;62284;50.702;7.140;2022-08-01T12:30:18;28.00;59.70
9006;DHT22;62284;50.702;7.140;2022-08-01T12:32:48;27.90;58.90
9006;DHT22;62284;50.702;7.140;2022-08-01T12:35:17;27.70;59.70
9006;DHT22;62284;50.702;7.140;2022-08-01T12:37:45;27.60;59.50
9006;DHT22;62284;50.702;7.140;2022-08-01T12:40:15;27.60;59.90
9006;DHT22;62284;50.702;7.140;2022-08-01T12:42:44;27.50;59.50
9006;DHT22;62284;50.702;7.140;2022-08-01T12:45:14;27.50;60.30
9006;DHT22;62284;50.702;7.140;2022-08-01T12:47:42;27.70;59.70
9006;DHT22;62284;50.702;7.140;2022-08-01T12:50:12;27.60;60.10
9006;DHT22;62284;50.702;7.140;2022-08-01T12:52:39;27.90;60.20
9006;DHT22;62284;50.702;7.140;2022-08-01T12:55:09;28.10;59.40
9006;DHT22;62284;50.702;7.140;2022-08-01T12:57:40;28.40;60.00
9006;DHT22;62284;50.702;7.140;2022-08-01T13:00:11;28.50;58.80
9006;DHT22;62284;50.702;7.140;2022-08-01T13:02:39;28.90;57.70
9006;DHT22;62284;50.702;7.140;2022-08-01T13:05:07;29.40;57.10
9006;DHT22;62284;50.702;7.140;2022-08-01T13:07:39;31.70;54.10
9006;DHT22;62284;50.702;7.140;2022-08-01T13:10:07;33.40;48.60
9006;DHT22;62284;50.702;7.140;2022-08-01T13:12:34;33.00;46.70
9006;DHT22;62284;50.702;7.140;2022-08-01T13:17:55;31.90;48.10
9006;DHT22;62284;50.702;7.140;2022-08-01T13:20:24;30.10;51.30
9006;DHT22;62284;50.702;7.140;2022-08-01T13:22:52;29.50;53.00
9006;DHT22;62284;50.702;7.140;2022-08-01T13:25:19;29.30;53.50
9006;DHT22;62284;50.702;7.140;2022-08-01T13:27:46;29.40;53.40
9006;DHT22;62284;50.702;7.140;2022-08-01T13:30:14;29.50;53.30
9006;DHT22;62284;50.702;7.140;2022-08-01T13:32:42;29.60;53.40
9006;DHT22;62284;50.702;7.140;2022-08-01T13:35:12;29.60;53.40
9006;DHT22;62284;50.702;7.140;2022-08-01T13:37:41;29.10;54.40
9006;DHT22;62284;50.702;7.140;2022-08-01T13:40:10;29.40;55.00
9006;DHT22;62284;50.702;7.140;2022-08-01T13:42:38;29.10;53.90
9006;DHT22;62284;50.702;7.140;2022-08-01T13:45:07;30.00;52.30
9006;DHT22;62284;50.702;7.140;2022-08-01T13:47:36;30.20;51.60
9006;DHT22;62284;50.702;7.140;2022-08-01T13:50:04;30.20;50.80
9006;DHT22;62284;50.702;7.140;2022-08-01T13:52:32;29.80;49.80
9006;DHT22;62284;50.702;7.140;2022-08-01T13:55:00;29.10;51.30
9006;DHT22;62284;50.702;7.140;2022-08-01T13:57:27;28.60;51.30
9006;DHT22;62284;50.702;7.140;2022-08-01T13:59:54;28.40;52.20
9006;DHT22;62284;50.702;7.140;2022-08-01T14:02:25;28.20;53.70
9006;DHT22;62284;50.702;7.140;2022-08-01T14:04:52;28.20;54.90
9006;DHT22;62284;50.702;7.140;2022-08-01T14:07:19;28.30;54.70
9006;DHT22;62284;50.702;7.140;2022-08-01T14:09:48;28.50;54.30
9006;DHT22;62284;50.702;7.140;2022-08-01T14:12:15;28.60;53.70
9006;DHT22;62284;50.702;7.140;2022-08-01T14:14:42;28.70;53.70
9006;DHT22;62284;50.702;7.140;2022-08-01T14:17:09;28.70;53.20
9006;DHT22;62284;50.702;7.140;2022-08-01T14:19:35;28.90;53.20
9006;DHT22;62284;50.702;7.140;2022-08-01T14:22:02;29.10;52.10
9006;DHT22;62284;50.702;7.140;2022-08-01T14:24:29;28.90;52.00
9006;DHT22;62284;50.702;7.140;2022-08-01T14:26:57;28.70;52.70
9006;DHT22;62284;50.702;7.140;2022-08-01T14:29:24;28.70;52.90
9006;DHT22;62284;50.702;7.140;2022-08-01T14:31:51;28.50;53.00
9006;DHT22;62284;50.702;7.140;2022-08-01T14:34:18;28.40;53.00
9006;DHT22;62284;50.702;7.140;2022-08-01T14:36:45;28.30;52.80
9006;DHT22;62284;50.702;7.140;2022-08-01T14:39:12;28.60;52.60
9006;DHT22;62284;50.702;7.140;2022-08-01T14:41:39;28.70;51.80
9006;DHT22;62284;50.702;7.140;2022-08-01T14:44:07;28.60;51.70
9006;DHT22;62284;50.702;7.140;2022-08-01T14:46:34;28.50;52.10
9006;DHT22;62284;50.702;7.140;2022-08-01T14:49:01;28.30;52.90
9006;DHT22;62284;50.702;7.140;2022-08-01T14:51:28;28.30;52.50
9006;DHT22;62284;50.702;7.140;2022-08-01T14:53:58;28.20;51.70
9006;DHT22;62284;50.702;7.140;2022-08-01T14:56:25;28.10;51.10
9006;DHT22;62284;50.702;7.140;2022-08-01T14:58:52;28.00;51.40
9006;DHT22;62284;50.702;7.140;2022-08-01T15:01:20;28.00;51.40
9006;DHT22;62284;50.702;7.140;2022-08-01T15:03:47;27.90;51.20
9006;DHT22;62284;50.702;7.140;2022-08-01T15:06:16;27.90;50.80
9006;DHT22;62284;50.702;7.140;2022-08-01T15:08:43;28.00;51.00
9006;DHT22;62284;50.702;7.140;2022-08-01T15:11:10;28.30;51.60
9006;DHT22;62284;50.702;7.140;2022-08-01T15:13:37;28.60;50.00
9006;DHT22;62284;50.702;7.140;2022-08-01T15:16:04;28.90;49.80
9006;DHT22;62284;50.702;7.140;2022-08-01T15:18:32;29.20;48.90
9006;DHT22;62284;50.702;7.140;2022-08-01T15:20:59;29.80;49.00
9006;DHT22;62284;50.702;7.140;2022-08-01T15:23:26;30.40;47.60
9006;DHT22;62284;50.702;7.140;2022-08-01T15:25:53;30.20;46.80
9006;DHT22;62284;50.702;7.140;2022-08-01T15:28:20;29.90;47.60
9006;DHT22;62284;50.702;7.140;2022-08-01T15:30:46;29.80;47.50
9006;DHT22;62284;50.702;7.140;2022-08-01T15:33:13;29.70;48.20
9006;DHT22;62284;50.702;7.140;2022-08-01T15:35:42;29.20;48.20
9006;DHT22;62284;50.702;7.140;2022-08-01T15:38:09;29.20;48.50
9006;DHT22;62284;50.702;7.140;2022-08-01T15:40:36;28.90;49.20
9006;DHT22;62284;50.702;7.140;2022-08-01T15:43:03;28.70;49.90
9006;DHT22;62284;50.702;7.140;2022-08-01T15:45:30;28.50;49.80
9006;DHT22;62284;50.702;7.140;2022-08-01T15:47:57;28.50;50.30
9006;DHT22;62284;50.702;7.140;2022-08-01T15:50:24;28.50;50.50
9006;DHT22;62284;50.702;7.140;2022-08-01T15:52:52;28.30;51.40
9006;DHT22;62284;50.702;7.140;2022-08-01T15:55:19;28.40;51.40
9006;DHT22;62284;50.702;7.140;2022-08-01T15:57:46;28.70;50.80
9006;DHT22;62284;50.702;7.140;2022-08-01T16:00:13;28.60;49.80